createdAt,value
2023-03-23T15:59:12.762Z,2.17
2023-03-23T16:01:43.541Z,2.87
2023-03-23T16:04:15.970Z,2.30
2023-03-23T16:06:44.419Z,2.37
2023-03-23T16:09:17.101Z,1.83
2023-03-23T16:11:44.996Z,2.17
2023-03-23T16:14:12.921Z,2.27
2023-03-23T16:16:44.456Z,2.30
2023-03-23T16:19:14.239Z,2.53
2023-03-23T16:21:42.161Z,2.37
2023-03-23T16:24:13.619Z,1.87
2023-03-23T16:26:42.706Z,2.47
2023-03-23T16:29:22.326Z,2.17
2023-03-23T16:32:01.218Z,2.80
2023-03-23T16:34:33.020Z,2.10
2023-03-23T16:37:02.870Z,2.40
2023-03-23T16:39:30.776Z,2.40
2023-03-23T16:41:59.852Z,2.67
2023-03-23T16:44:27.698Z,2.07
2023-03-23T16:46:55.755Z,2.53
2023-03-23T16:49:23.530Z,2.00
2023-03-23T16:51:51.303Z,2.10
2023-03-23T16:54:19.126Z,2.03
2023-03-23T16:56:48.982Z,2.17
2023-03-23T16:59:18.082Z,2.27
2023-03-23T17:01:45.961Z,2.00
2023-03-23T17:04:15.635Z,2.30
2023-03-23T17:06:44.131Z,2.47
2023-03-23T17:09:12.018Z,2.37
2023-03-23T17:11:40.005Z,2.37
2023-03-23T17:14:07.845Z,2.33
2023-03-23T17:16:37.074Z,2.33
2023-03-23T17:19:05.104Z,2.40
2023-03-23T17:21:34.196Z,2.57
2023-03-23T17:24:02.041Z,2.20
2023-03-23T17:26:29.837Z,2.30
2023-03-23T17:28:57.783Z,1.97
2023-03-23T17:31:25.917Z,2.23
2023-03-23T17:33:55.765Z,2.27
2023-03-23T17:36:23.620Z,1.67
2023-03-23T17:38:51.772Z,1.80
2023-03-23T17:41:21.044Z,1.77
2023-03-23T17:43:49.117Z,1.77
2023-03-23T17:46:18.275Z,1.33
2023-03-23T17:48:46.071Z,1.60
2023-03-23T17:51:15.471Z,1.40
2023-03-23T17:53:43.324Z,2.00
2023-03-23T17:56:11.480Z,1.40
2023-03-23T17:58:39.266Z,1.40
2023-03-23T18:01:07.679Z,1.63
2023-03-23T18:03:37.114Z,1.50
2023-03-23T18:06:08.239Z,1.50
2023-03-23T18:08:38.344Z,1.90
2023-03-23T18:11:07.202Z,1.50
2023-03-23T18:13:36.927Z,1.50
2023-03-23T18:16:05.884Z,1.57
2023-03-23T18:18:33.772Z,1.73
2023-03-23T18:21:03.747Z,1.33
2023-03-23T18:23:39.005Z,1.50
2023-03-23T18:26:14.361Z,1.80
2023-03-23T18:28:42.174Z,1.53
2023-03-23T18:31:13.107Z,1.70
2023-03-23T18:33:42.453Z,1.83
2023-03-23T18:36:11.247Z,1.97
2023-03-23T18:38:39.445Z,1.70
2023-03-23T18:41:08.116Z,1.80
2023-03-23T18:43:38.314Z,1.70
2023-03-23T18:46:06.843Z,1.70
2023-03-23T18:48:35.615Z,1.83
2023-03-23T18:51:06.665Z,1.97
2023-03-23T18:53:34.382Z,1.80
2023-03-23T18:56:07.214Z,1.70
2023-03-23T18:58:34.931Z,1.77
2023-03-23T19:01:08.926Z,1.73
2023-03-23T19:03:36.910Z,2.00
2023-03-23T19:06:06.032Z,1.87
2023-03-23T19:08:34.858Z,2.00
2023-03-23T19:11:05.546Z,1.47
2023-03-23T19:13:36.896Z,1.80
2023-03-23T19:16:07.891Z,2.47
2023-03-23T19:18:35.744Z,1.60
2023-03-23T19:21:12.505Z,1.87
2023-03-23T19:23:42.271Z,1.87
2023-03-23T19:26:11.216Z,1.67
2023-03-23T19:31:11.053Z,1.60
2023-03-23T19:33:40.299Z,2.03
2023-03-23T19:36:12.889Z,1.67
2023-03-23T19:38:41.332Z,1.83
2023-03-23T19:41:09.239Z,1.80
2023-03-23T19:43:37.861Z,2.20
2023-03-23T19:46:06.032Z,1.93
2023-03-23T19:48:35.380Z,2.13
2023-03-23T19:51:03.472Z,2.63
2023-03-23T19:53:32.034Z,2.00
2023-03-23T19:55:59.801Z,2.10
2023-03-23T19:58:28.589Z,2.07
2023-03-23T20:00:56.557Z,2.00
2023-03-23T20:03:24.414Z,2.33
2023-03-23T20:06:01.329Z,2.47
2023-03-23T20:08:29.720Z,2.10
2023-03-23T20:11:03.458Z,2.00
2023-03-23T20:13:31.413Z,2.53
2023-03-23T20:16:00.674Z,2.27
2023-03-23T20:18:29.901Z,2.50
2023-03-23T20:21:03.870Z,2.07
2023-03-23T20:23:32.111Z,2.13
2023-03-23T20:26:00.745Z,2.23
2023-03-23T20:28:28.741Z,2.60
2023-03-23T20:31:20.999Z,2.80
2023-03-23T20:34:00.067Z,2.23
2023-03-23T20:36:34.898Z,2.43
2023-03-23T20:39:05.529Z,3.07
2023-03-23T20:41:35.950Z,2.27
2023-03-23T20:44:05.189Z,2.30
2023-03-23T20:46:33.414Z,2.80
2023-03-23T20:49:01.910Z,2.43
2023-03-23T20:51:31.317Z,2.43
2023-03-23T20:53:59.389Z,2.67
2023-03-23T20:56:27.614Z,2.30
2023-03-23T20:58:55.465Z,2.63
2023-03-23T21:01:23.352Z,2.37
2023-03-23T21:03:52.445Z,2.10
2023-03-23T21:06:20.445Z,2.27
2023-03-23T21:08:52.384Z,2.40
2023-03-23T21:11:22.955Z,2.50
2023-03-23T21:13:50.894Z,2.27
2023-03-23T21:16:19.319Z,2.80
2023-03-23T21:18:47.661Z,2.70
2023-03-23T21:21:18.364Z,2.10
2023-03-23T21:23:52.786Z,2.60
2023-03-23T21:26:24.022Z,2.20
2023-03-23T21:28:54.054Z,2.10
2023-03-23T21:31:25.418Z,1.90
2023-03-23T21:33:53.216Z,2.33
2023-03-23T21:36:21.046Z,1.73
2023-03-23T21:38:50.150Z,2.30
2023-03-23T21:41:18.066Z,2.50
2023-03-23T21:43:49.010Z,1.80
2023-03-23T21:46:19.241Z,2.50
2023-03-23T21:48:51.266Z,2.20
2023-03-23T21:51:22.255Z,2.53
2023-03-23T21:53:51.232Z,1.97
2023-03-23T21:56:18.984Z,1.77
2023-03-23T21:58:48.350Z,1.93
2023-03-23T22:01:16.197Z,2.10
2023-03-23T22:03:52.454Z,1.90
2023-03-23T22:06:23.376Z,2.00
2023-03-23T22:08:51.794Z,2.10
2023-03-23T22:11:23.065Z,1.90
2023-03-23T22:13:53.244Z,1.87
2023-03-23T22:16:22.565Z,2.10
2023-03-23T22:18:52.448Z,1.80
2023-03-23T22:21:22.030Z,1.90
2023-03-23T22:23:50.404Z,1.90
2023-03-23T22:26:18.225Z,1.90
2023-03-23T22:28:47.614Z,1.80
2023-03-23T22:31:18.783Z,1.60
2023-03-23T22:33:48.084Z,1.70
2023-03-23T22:36:17.021Z,2.40
2023-03-23T22:38:47.066Z,2.00
2023-03-23T22:41:17.530Z,2.23
2023-03-23T22:43:45.376Z,2.10
2023-03-23T22:46:13.198Z,2.23
2023-03-23T22:48:43.013Z,1.77
2023-03-23T22:51:12.332Z,1.60
2023-03-23T22:53:40.400Z,1.30
2023-03-23T22:56:09.125Z,1.60
2023-03-23T22:58:37.601Z,1.33
2023-03-23T23:01:08.722Z,1.80
2023-03-23T23:03:36.992Z,1.97
2023-03-23T23:06:07.456Z,1.40
2023-03-23T23:08:35.614Z,1.67
2023-03-23T23:11:04.727Z,1.80
2023-03-23T23:13:33.303Z,1.70
2023-03-23T23:16:02.673Z,1.67
2023-03-23T23:18:33.254Z,1.60
2023-03-23T23:21:05.127Z,1.47
2023-03-23T23:23:34.525Z,1.50
2023-03-23T23:26:02.293Z,1.60
2023-03-23T23:28:31.094Z,1.80
2023-03-23T23:30:59.740Z,1.50
2023-03-23T23:33:27.774Z,1.70
2023-03-23T23:35:56.452Z,1.57
2023-03-23T23:38:24.281Z,1.40
2023-03-23T23:40:53.463Z,1.50
2023-03-23T23:43:21.241Z,1.37
2023-03-23T23:45:49.043Z,1.80
2023-03-23T23:48:16.879Z,1.60
2023-03-23T23:50:44.792Z,1.90
2023-03-23T23:53:13.194Z,1.80
2023-03-23T23:55:41.164Z,1.73
2023-03-23T23:58:10.340Z,1.83
